createdAt,value
2022-08-08T00:00:56.934Z,0
2022-08-08T00:05:20.697Z,3.6
2022-08-08T00:10:55.165Z,0
2022-08-08T00:16:37.647Z,0
2022-08-08T00:21:54.477Z,0
2022-08-08T00:27:36.885Z,0
2022-08-08T00:33:08.519Z,0
2022-08-08T00:38:44.239Z,0
2022-08-08T00:44:33.393Z,0
2022-08-08T00:50:08.085Z,0
2022-08-08T00:55:35.865Z,0
2022-08-08T01:01:02.914Z,0
2022-08-08T01:06:58.591Z,0
2022-08-08T01:12:31.222Z,0
2022-08-08T01:18:01.969Z,0
2022-08-08T01:23:15.998Z,0
2022-08-08T01:29:13.693Z,0
2022-08-08T01:40:14.567Z,0
2022-08-08T01:56:46.864Z,0
2022-08-08T02:08:20.281Z,0
2022-08-08T02:13:53.454Z,0
2022-08-08T02:19:27.152Z,0
2022-08-08T02:25:07.061Z,0
2022-08-08T02:30:49.667Z,0
2022-08-08T02:36:08.507Z,0
2022-08-08T02:41:58.248Z,0
2022-08-08T02:47:09.018Z,0
2022-08-08T02:52:59.700Z,0
2022-08-08T02:58:14.991Z,0
2022-08-08T03:05:02.203Z,0
2022-08-08T03:20:27.236Z,0
2022-08-08T03:26:28.093Z,0
2022-08-08T03:32:05.689Z,0
2022-08-08T03:38:00.482Z,0
2022-08-08T03:42:57.058Z,0
2022-08-08T03:49:10.410Z,0
2022-08-08T03:54:02.297Z,0
2022-08-08T03:59:30.200Z,0
2022-08-08T04:05:19.329Z,0
2022-08-08T04:21:48.705Z,0
2022-08-08T04:27:43.146Z,0
2022-08-08T04:32:58.228Z,0
2022-08-08T04:39:20.563Z,0
2022-08-08T04:49:58.874Z,0
2022-08-08T04:55:37.998Z,0
2022-08-08T05:00:58.312Z,0
2022-08-08T05:12:10.008Z,0
2022-08-08T05:17:53.488Z,0
2022-08-08T05:28:56.965Z,0
2022-08-08T05:34:30.151Z,0
2022-08-08T05:40:21.471Z,0
2022-08-08T05:46:02.000Z,0
2022-08-08T05:51:21.876Z,0
2022-08-08T05:56:57.662Z,0
2022-08-08T06:02:35.967Z,0
2022-08-08T06:08:28.411Z,0
2022-08-08T06:13:47.751Z,4.8
2022-08-08T06:19:07.213Z,5.9
2022-08-08T06:24:47.227Z,5.9
2022-08-08T06:30:26.581Z,7.2
2022-08-08T06:36:05.165Z,7.2
2022-08-08T06:41:49.078Z,8.4
2022-08-08T06:47:31.687Z,7.2
2022-08-08T06:52:56.316Z,8.4
2022-08-08T06:58:32.699Z,9.6
2022-08-08T07:04:35.453Z,8.4
2022-08-08T07:09:41.825Z,9.6
2022-08-08T07:15:23.495Z,9.6
2022-08-08T07:20:50.333Z,10.7
2022-08-08T07:26:36.379Z,9.6
2022-08-08T07:32:03.884Z,9.6
2022-08-08T07:37:56.687Z,7.2
2022-08-08T07:43:23.317Z,9.6
2022-08-08T07:48:52.098Z,8.4
2022-08-08T07:54:55.013Z,8.4
2022-08-08T08:00:22.794Z,10.7
2022-08-08T08:05:50.733Z,9.6
2022-08-08T08:11:33.807Z,10.7
2022-08-08T08:17:08.512Z,11.9
2022-08-08T08:22:54.440Z,8.4
2022-08-08T08:28:40.153Z,14.4
2022-08-08T08:33:58.287Z,15.6
2022-08-08T08:40:00.753Z,14.4
2022-08-08T08:45:33.972Z,14.4
2022-08-08T08:51:07.304Z,19.2
2022-08-08T08:56:36.208Z,19.2
2022-08-08T09:02:11.987Z,16.8
2022-08-08T09:07:38.942Z,16.8
2022-08-08T09:13:35.670Z,20.4
2022-08-08T09:19:29.257Z,20.4
2022-08-08T09:24:35.955Z,22.8
2022-08-08T09:30:17.665Z,22.8
2022-08-08T09:35:54.685Z,22.8
2022-08-08T09:41:55.236Z,25.1
2022-08-08T09:47:25.766Z,26.4
2022-08-08T09:53:15.422Z,23.9
2022-08-08T09:58:26.249Z,23.9
2022-08-08T10:04:35.415Z,25.1
2022-08-08T10:09:59.309Z,25.1
2022-08-08T10:15:25.097Z,25.1
2022-08-08T10:21:23.347Z,25.1
2022-08-08T10:26:30.357Z,22.8
2022-08-08T10:32:16.745Z,20.4
2022-08-08T10:37:57.858Z,16.8
2022-08-08T10:43:40.196Z,19.2
2022-08-08T10:50:00.941Z,19.2
2022-08-08T10:54:58.310Z,23.9
2022-08-08T11:00:49.067Z,23.9
2022-08-08T11:06:00.518Z,23.9
2022-08-08T11:12:00.542Z,20.4
2022-08-08T11:17:59.235Z,22.8
2022-08-08T11:22:56.010Z,25.1
2022-08-08T11:28:44.053Z,25.1
2022-08-08T11:34:23.082Z,23.9
2022-08-08T11:40:16.243Z,25.1
2022-08-08T11:46:00.106Z,20.4
2022-08-08T11:51:39.486Z,19.2
2022-08-08T11:57:17.181Z,21.5
2022-08-08T12:02:32.538Z,19.2
2022-08-08T12:08:32.671Z,21.5
2022-08-08T12:14:03.175Z,22.8
2022-08-08T12:19:38.048Z,22.8
2022-08-08T12:25:13.738Z,23.9
2022-08-08T12:30:50.138Z,21.5
2022-08-08T12:36:22.782Z,21.5
2022-08-08T12:42:21.077Z,21.5
2022-08-08T12:48:05.224Z,19.2
2022-08-08T12:53:42.080Z,22.8
2022-08-08T12:59:01.437Z,22.8
2022-08-08T13:05:15.779Z,21.5
2022-08-08T13:10:55.719Z,20.4
2022-08-08T13:16:04.214Z,25.1
2022-08-08T13:21:55.751Z,23.9
2022-08-08T13:27:43.827Z,21.5
2022-08-08T13:33:10.837Z,23.9
2022-08-08T13:39:04.984Z,25.1
2022-08-08T13:44:44.863Z,21.5
2022-08-08T13:50:34.373Z,22.8
2022-08-08T13:55:53.682Z,20.4
2022-08-08T14:01:17.881Z,23.9
2022-08-08T14:06:55.576Z,22.8
2022-08-08T14:12:44.989Z,20.4
2022-08-08T14:18:52.393Z,21.5
2022-08-08T14:24:20.716Z,19.2
2022-08-08T14:30:01.623Z,20.4
2022-08-08T14:35:37.870Z,19.2
2022-08-08T14:41:44.208Z,20.4
2022-08-08T14:46:47.657Z,20.4
2022-08-08T14:52:24.118Z,20.4
2022-08-08T14:58:21.975Z,20.4
2022-08-08T15:03:44.969Z,19.2
2022-08-08T15:09:28.071Z,16.8
2022-08-08T15:15:18.595Z,21.5
2022-08-08T15:20:37.422Z,22.8
2022-08-08T15:26:15.153Z,19.2
2022-08-08T15:32:20.013Z,18
2022-08-08T15:37:36.882Z,20.4
2022-08-08T15:49:10.985Z,16.8
2022-08-08T15:54:42.495Z,15.6
2022-08-08T16:06:04.075Z,20.4
2022-08-08T16:17:39.045Z,19.2
2022-08-08T16:22:59.161Z,18
2022-08-08T16:28:39.260Z,19.2
2022-08-08T16:34:22.090Z,20.4
2022-08-08T16:40:00.165Z,16.8
2022-08-08T16:46:35.804Z,16.8
2022-08-08T16:51:05.508Z,19.2
2022-08-08T17:02:44.785Z,18
2022-08-08T17:08:00.345Z,15.6
2022-08-08T17:14:01.270Z,18
2022-08-08T17:19:21.228Z,20.4
2022-08-08T17:30:34.252Z,14.4
2022-08-08T17:36:29.454Z,14.4
2022-08-08T17:41:58.213Z,18
2022-08-08T17:47:57.436Z,16.8
2022-08-08T17:53:15.629Z,18
2022-08-08T17:59:12.607Z,13.2
2022-08-08T18:04:28.811Z,11.9
2022-08-08T18:10:31.636Z,15.6
2022-08-08T18:15:41.014Z,11.9
2022-08-08T18:21:25.396Z,10.7
2022-08-08T18:44:00.807Z,9.6
2022-08-08T18:49:40.758Z,9.6
2022-08-08T19:01:04.657Z,8.4
2022-08-08T19:06:25.592Z,5.9
2022-08-08T19:12:15.045Z,8.4
2022-08-08T19:18:31.669Z,9.6
2022-08-08T19:23:30.231Z,8.4
2022-08-08T19:28:56.167Z,2.4
2022-08-08T19:34:48.167Z,0
2022-08-08T19:40:06.019Z,3.6
2022-08-08T19:45:58.072Z,5.9
2022-08-08T19:51:39.683Z,0
2022-08-08T19:56:54.572Z,0
2022-08-08T20:02:50.537Z,4.8
2022-08-08T20:08:27.382Z,5.9
2022-08-08T20:14:10.462Z,5.9
2022-08-08T20:19:14.511Z,7.2
2022-08-08T20:24:55.678Z,4.8
2022-08-08T20:30:39.055Z,5.9
2022-08-08T20:36:17.193Z,7.2
2022-08-08T20:41:37.174Z,7.2
2022-08-08T20:47:25.942Z,8.4
